Time;durP1;ratioP1;P1;durP2;ratioP2;P2;SDS_P1;SDS_P2;PMS_P1;PMS_P2;Temp;Humidity;BMP_temperature;BMP_pressure;BME280_temperature;BME280_humidity;BME280_pressure;Samples;Min_cycle;Max_cycle;Signal;HPM_P1;HPM_P2
2023/05/25 00:00:21;;;;;;;4.90;2.35;;;12.60;63.70;;;;;;5113479;28;20503;-66
2023/05/25 00:02:47;;;;;;;6.85;3.20;;;12.60;63.70;;;;;;5089115;28;20416;-66
2023/05/25 00:05:13;;;;;;;5.65;2.67;;;12.60;63.80;;;;;;5125971;28;20048;-66
2023/05/25 00:07:39;;;;;;;4.55;2.45;;;12.50;63.80;;;;;;5125247;28;20522;-66
2023/05/25 00:10:06;;;;;;;7.25;2.80;;;12.50;63.90;;;;;;5109735;28;20037;-66
2023/05/25 00:12:32;;;;;;;6.15;3.35;;;12.50;64.00;;;;;;5085285;28;20048;-66
2023/05/25 00:14:58;;;;;;;6.10;2.67;;;12.50;64.10;;;;;;5091423;28;20039;-66
2023/05/25 00:17:24;;;;;;;6.75;3.00;;;12.40;64.10;;;;;;5091045;28;20456;-66
2023/05/25 00:19:50;;;;;;;6.25;2.35;;;12.40;64.00;;;;;;5118611;28;20081;-66
2023/05/25 00:22:16;;;;;;;5.57;2.65;;;12.40;64.00;;;;;;5125374;28;20082;-66
2023/05/25 00:24:42;;;;;;;5.38;2.55;;;12.40;64.00;;;;;;5110913;28;20493;-66
2023/05/25 00:27:07;;;;;;;6.18;2.88;;;12.30;64.00;;;;;;5075004;28;20052;-66
2023/05/25 00:29:34;;;;;;;7.18;3.22;;;12.30;64.00;;;;;;5085898;28;20102;-66
2023/05/25 00:32:00;;;;;;;5.47;2.92;;;12.30;64.10;;;;;;5095541;28;20052;-66
2023/05/25 00:34:26;;;;;;;5.20;2.83;;;12.30;64.20;;;;;;5095847;28;20593;-66
2023/05/25 00:36:53;;;;;;;6.57;3.33;;;12.20;64.20;;;;;;5094877;28;20041;-66
2023/05/25 00:39:20;;;;;;;5.05;2.95;;;12.20;64.20;;;;;;5092879;28;20040;-66
2023/05/25 00:41:47;;;;;;;4.72;2.50;;;12.20;64.30;;;;;;5129210;27;20713;-66
2023/05/25 00:44:13;;;;;;;5.88;2.90;;;12.20;64.30;;;;;;5128899;27;20510;-66
2023/05/25 00:46:46;;;;;;;4.32;2.85;;;12.10;64.30;;;;;;5129020;27;20562;-66
2023/05/25 00:49:17;;;;;;;5.75;2.70;;;12.10;64.40;;;;;;5094777;28;20398;-66
2023/05/25 00:51:45;;;;;;;7.28;3.10;;;12.10;64.50;;;;;;5094218;28;20046;-66
2023/05/25 00:54:13;;;;;;;6.30;2.80;;;12.00;64.50;;;;;;5077924;28;20452;-66
2023/05/25 00:56:41;;;;;;;5.35;3.45;;;12.00;64.50;;;;;;5094615;28;20043;-66
2023/05/25 00:59:10;;;;;;;6.28;3.33;;;12.00;64.50;;;;;;5094750;28;20039;-66
2023/05/25 01:01:38;;;;;;;6.03;3.15;;;11.90;64.60;;;;;;5124496;27;20066;-66
2023/05/25 01:04:09;;;;;;;6.72;3.10;;;11.90;64.60;;;;;;5093942;28;20121;-66
2023/05/25 01:06:38;;;;;;;4.30;2.45;;;11.90;64.60;;;;;;5077223;28;20118;-66
2023/05/25 01:09:06;;;;;;;4.95;2.47;;;11.90;64.60;;;;;;5106952;28;20302;-66
2023/05/25 01:11:35;;;;;;;5.60;2.67;;;11.90;64.70;;;;;;5110727;27;20459;-66
2023/05/25 01:14:01;;;;;;;4.50;2.88;;;11.80;64.60;;;;;;5074160;28;20051;-66
2023/05/25 01:16:28;;;;;;;5.75;3.05;;;11.80;64.60;;;;;;5087878;28;20357;-66
2023/05/25 01:18:54;;;;;;;5.45;3.00;;;11.80;64.70;;;;;;5093938;28;20114;-66
2023/05/25 01:21:36;;;;;;;5.68;2.90;;;11.70;64.70;;;;;;5120491;27;20067;-66
2023/05/25 01:24:26;;;;;;;5.25;2.63;;;11.70;64.70;;;;;;5093544;28;20119;-66
2023/05/25 01:27:05;;;;;;;4.95;2.63;;;11.70;64.70;;;;;;5094079;28;20044;-66
2023/05/25 01:29:33;;;;;;;4.93;2.90;;;11.70;64.80;;;;;;5093730;28;20533;-66
2023/05/25 01:32:01;;;;;;;5.38;2.50;;;11.70;65.30;;;;;;5076977;28;20123;-66
2023/05/25 01:34:28;;;;;;;5.72;3.30;;;11.60;64.80;;;;;;5093617;28;20051;-66
2023/05/25 01:36:55;;;;;;;4.93;3.00;;;11.60;64.90;;;;;;5093274;28;20238;-66
2023/05/25 01:39:22;;;;;;;4.30;2.88;;;11.60;65.00;;;;;;5093328;28;20446;-66
2023/05/25 01:41:47;;;;;;;4.97;3.08;;;11.60;65.10;;;;;;5115537;27;20083;-66
2023/05/25 01:44:13;;;;;;;6.75;3.63;;;11.60;65.20;;;;;;5081721;28;20075;-66
2023/05/25 01:46:40;;;;;;;5.15;2.92;;;11.50;65.10;;;;;;5128102;27;20369;-66
2023/05/25 01:49:16;;;;;;;6.45;3.33;;;11.50;65.20;;;;;;5123720;27;20040;-66
2023/05/25 01:52:08;;;;;;;5.80;2.70;;;11.50;65.30;;;;;;5073421;28;20413;-66
2023/05/25 01:54:46;;;;;;;3.88;2.50;;;11.50;65.10;;;;;;5081099;28;20044;-66
2023/05/25 01:57:17;;;;;;;7.28;2.70;;;11.40;65.10;;;;;;5127735;27;20488;-66
2023/05/25 01:59:45;;;;;;;6.15;3.05;;;11.40;65.20;;;;;;5093164;28;20047;-66
2023/05/25 02:02:14;;;;;;;5.25;2.33;;;11.40;65.30;;;;;;5127481;27;20036;-66
2023/05/25 02:04:44;;;;;;;6.47;3.47;;;11.40;65.30;;;;;;5113377;27;20082;-66
2023/05/25 02:07:10;;;;;;;4.38;2.45;;;11.30;65.60;;;;;;5073271;28;20040;-66
2023/05/25 02:09:36;;;;;;;5.43;2.65;;;11.40;65.20;;;;;;5099133;28;20040;-66
2023/05/25 02:12:03;;;;;;;6.20;2.80;;;11.30;65.20;;;;;;5127484;27;20070;-66
2023/05/25 02:14:28;;;;;;;4.63;2.58;;;11.30;65.30;;;;;;5118289;27;20044;-66
2023/05/25 02:16:56;;;;;;;5.90;3.03;;;11.30;65.30;;;;;;5076092;28;20047;-66
2023/05/25 02:19:22;;;;;;;5.45;3.00;;;11.30;65.30;;;;;;5112624;27;20105;-66
2023/05/25 02:21:47;;;;;;;5.90;2.28;;;11.30;65.20;;;;;;5072722;28;20484;-66
2023/05/25 02:24:13;;;;;;;6.32;2.97;;;11.30;65.20;;;;;;5095808;28;20040;-64
2023/05/25 02:26:39;;;;;;;5.25;2.30;;;11.30;65.20;;;;;;5127415;27;20044;-64
2023/05/25 02:29:05;;;;;;;5.32;3.05;;;11.30;65.20;;;;;;5122164;27;20479;-64
2023/05/25 02:31:31;;;;;;;5.40;2.85;;;11.30;65.30;;;;;;5072947;28;20040;-64
2023/05/25 02:33:57;;;;;;;5.30;2.50;;;11.20;65.20;;;;;;5098078;28;20044;-64
2023/05/25 02:36:23;;;;;;;4.82;2.67;;;11.20;65.30;;;;;;5126812;27;20044;-65
2023/05/25 02:38:50;;;;;;;5.13;2.65;;;11.20;65.30;;;;;;5075741;28;20387;-64
2023/05/25 02:41:23;;;;;;;5.68;2.78;;;11.20;65.30;;;;;;5092639;28;20048;-64
2023/05/25 02:43:49;;;;;;;4.18;2.63;;;11.20;65.40;;;;;;5092234;28;20052;-66
2023/05/25 02:46:15;;;;;;;3.63;2.45;;;11.20;65.40;;;;;;5126935;27;20083;-64
2023/05/25 02:48:42;;;;;;;6.95;3.40;;;11.20;65.30;;;;;;5125433;27;20458;-64
2023/05/25 02:51:07;;;;;;;7.55;2.47;;;11.10;65.30;;;;;;5092012;28;20046;-64
2023/05/25 02:53:33;;;;;;;6.13;2.53;;;11.10;65.30;;;;;;5093593;28;20044;-64
2023/05/25 02:56:01;;;;;;;4.50;2.50;;;11.10;65.20;;;;;;5092586;28;20043;-64
2023/05/25 02:58:27;;;;;;;6.22;2.60;;;11.00;65.20;;;;;;5092417;28;20044;-64
2023/05/25 03:00:53;;;;;;;4.82;2.30;;;11.00;65.20;;;;;;5109037;27;20080;-67
2023/05/25 03:03:19;;;;;;;7.55;2.90;;;11.00;65.30;;;;;;5090945;28;20036;-64
2023/05/25 03:05:45;;;;;;;3.80;2.40;;;11.00;65.30;;;;;;5075011;28;20044;-64
2023/05/25 03:08:10;;;;;;;4.60;2.70;;;11.00;65.30;;;;;;5124633;27;20062;-64
2023/05/25 03:10:36;;;;;;;5.35;2.88;;;11.00;65.30;;;;;;5110957;27;20555;-64
2023/05/25 03:13:02;;;;;;;3.67;2.15;;;11.00;65.30;;;;;;5072145;28;20037;-65
2023/05/25 03:15:28;;;;;;;5.45;2.75;;;11.00;65.30;;;;;;5108470;28;20041;-65
2023/05/25 03:17:55;;;;;;;6.30;3.00;;;10.90;65.30;;;;;;5075239;28;20043;-65
2023/05/25 03:20:23;;;;;;;4.50;2.75;;;10.90;65.30;;;;;;5098103;28;20036;-65
2023/05/25 03:22:49;;;;;;;4.25;2.63;;;10.90;65.40;;;;;;5071653;28;20479;-65
2023/05/25 03:25:15;;;;;;;5.03;2.97;;;10.90;65.50;;;;;;5089747;28;20130;-65
2023/05/25 03:27:40;;;;;;;4.55;2.58;;;10.90;65.50;;;;;;5092068;28;20178;-65
2023/05/25 03:30:07;;;;;;;4.50;2.45;;;10.80;65.50;;;;;;5091660;28;20483;-65
2023/05/25 03:32:32;;;;;;;3.97;2.63;;;10.80;65.50;;;;;;5108912;28;20036;-65
2023/05/25 03:34:58;;;;;;;6.90;3.50;;;10.80;65.50;;;;;;5110452;27;20056;-65
2023/05/25 03:37:24;;;;;;;6.93;3.15;;;10.80;65.50;;;;;;5089064;28;20061;-65
2023/05/25 03:39:50;;;;;;;6.07;2.97;;;10.80;65.70;;;;;;5116770;27;20517;-65
2023/05/25 03:42:15;;;;;;;6.13;3.10;;;10.80;65.80;;;;;;5125704;27;20048;-65
2023/05/25 03:44:41;;;;;;;8.07;4.00;;;10.80;66.00;;;;;;5110369;27;20051;-65
2023/05/25 03:47:07;;;;;;;6.72;3.40;;;10.80;66.20;;;;;;5071471;28;20476;-65
2023/05/25 03:49:32;;;;;;;5.35;3.15;;;10.80;66.30;;;;;;5080842;28;20103;-65
2023/05/25 03:52:00;;;;;;;5.05;2.95;;;10.80;66.40;;;;;;5074800;28;20040;-65
2023/05/25 03:54:26;;;;;;;5.95;2.90;;;10.80;66.40;;;;;;5091337;28;20048;-65
2023/05/25 03:56:51;;;;;;;3.95;2.63;;;10.80;66.40;;;;;;5123856;28;20101;-65
2023/05/25 03:59:17;;;;;;;3.63;2.33;;;10.80;66.50;;;;;;5119949;27;20049;-65
2023/05/25 04:01:44;;;;;;;5.40;2.30;;;10.70;66.40;;;;;;5075297;28;20041;-65
2023/05/25 04:04:09;;;;;;;3.90;2.35;;;10.70;66.50;;;;;;5087912;28;20377;-65
2023/05/25 04:06:36;;;;;;;3.80;2.38;;;10.70;66.50;;;;;;5095400;28;20105;-65
2023/05/25 04:09:03;;;;;;;3.78;2.20;;;10.70;66.50;;;;;;5108118;28;20369;-65
2023/05/25 04:11:29;;;;;;;5.95;2.55;;;10.80;66.60;;;;;;5075523;28;20127;-65
2023/05/25 04:13:55;;;;;;;3.83;2.55;;;10.70;66.70;;;;;;5084855;28;20132;-65
2023/05/25 04:16:21;;;;;;;7.40;2.78;;;10.70;66.70;;;;;;5129147;27;20395;-65
2023/05/25 04:18:46;;;;;;;4.15;2.60;;;10.70;66.80;;;;;;5096403;28;20095;-65
2023/05/25 04:21:12;;;;;;;5.35;2.42;;;10.70;66.90;;;;;;5094821;28;20119;-65
2023/05/25 04:23:38;;;;;;;4.65;2.88;;;10.70;67.00;;;;;;5095412;28;20125;-65
2023/05/25 04:26:04;;;;;;;4.95;2.88;;;10.70;67.10;;;;;;5095254;28;20067;-65
2023/05/25 04:28:31;;;;;;;5.93;2.78;;;10.70;67.20;;;;;;5128807;27;20044;-65
2023/05/25 04:30:57;;;;;;;4.47;2.50;;;10.70;67.40;;;;;;5095308;28;20451;-65
2023/05/25 04:33:23;;;;;;;6.15;2.95;;;10.70;67.60;;;;;;5121957;27;20040;-65
2023/05/25 04:35:49;;;;;;;6.07;3.55;;;10.70;67.80;;;;;;5074790;28;20040;-65
2023/05/25 04:38:19;;;;;;;5.15;3.30;;;10.70;68.10;;;;;;5093215;28;20408;-65
2023/05/25 04:40:47;;;;;;;6.70;3.25;;;10.70;68.10;;;;;;5109908;27;20044;-65
2023/05/25 04:43:17;;;;;;;7.85;3.97;;;10.70;68.20;;;;;;5078192;28;20044;-65
2023/05/25 04:45:46;;;;;;;6.72;4.25;;;10.80;68.40;;;;;;5094829;28;20036;-65
2023/05/25 04:48:12;;;;;;;6.78;3.65;;;10.80;68.70;;;;;;5126110;27;20039;-66
2023/05/25 04:50:41;;;;;;;7.70;3.85;;;10.80;69.00;;;;;;5077752;28;20054;-66
2023/05/25 04:53:07;;;;;;;6.75;4.50;;;10.80;69.30;;;;;;5094859;28;20123;-65
2023/05/25 04:55:33;;;;;;;9.13;4.70;;;10.80;69.50;;;;;;5077663;28;20123;-65
2023/05/25 04:57:59;;;;;;;11.18;5.65;;;10.90;69.70;;;;;;5077523;28;20387;-65
2023/05/25 05:00:26;;;;;;;6.10;4.00;;;10.90;70.10;;;;;;5128171;27;20063;-65
2023/05/25 05:02:55;;;;;;;6.95;4.70;;;10.90;70.70;;;;;;5121267;27;20044;-65
2023/05/25 05:05:21;;;;;;;9.20;5.20;;;10.90;71.10;;;;;;5094682;28;20040;-65
2023/05/25 05:07:47;;;;;;;7.82;5.32;;;11.00;71.40;;;;;;5123832;27;20460;-65
2023/05/25 05:10:13;;;;;;;10.35;5.72;;;11.00;71.90;;;;;;5073332;28;20040;-65
2023/05/25 05:12:38;;;;;;;10.75;7.18;;;11.00;72.40;;;;;;5079633;28;20117;-65
2023/05/25 05:15:04;;;;;;;14.18;7.50;;;11.10;73.40;;;;;;5121328;27;20043;-66
2023/05/25 05:17:30;;;;;;;10.23;6.70;;;11.20;75.10;;;;;;5074055;28;20044;-66
2023/05/25 05:19:56;;;;;;;12.20;7.50;;;11.40;76.70;;;;;;5074005;28;20036;-66
2023/05/25 05:22:22;;;;;;;12.70;6.20;;;11.70;77.20;;;;;;5084191;28;20055;-70
2023/05/25 05:24:47;;;;;;;7.82;5.68;;;12.00;77.50;;;;;;5094393;28;20036;-69
2023/05/25 05:27:14;;;;;;;10.57;6.90;;;12.40;77.40;;;;;;5094421;28;20040;-69
2023/05/25 05:29:41;;;;;;;11.68;7.15;;;12.70;76.90;;;;;;5094237;28;20040;-66
2023/05/25 05:32:07;;;;;;;11.52;6.93;;;13.20;76.20;;;;;;5093648;28;20048;-66
2023/05/25 05:34:33;;;;;;;10.48;5.70;;;13.60;75.20;;;;;;5094404;28;20426;-66
2023/05/25 05:36:59;;;;;;;13.55;7.20;;;13.90;74.50;;;;;;5094140;28;20372;-66
2023/05/25 05:39:28;;;;;;;9.02;5.57;;;14.30;73.80;;;;;;5076433;28;20047;-66
2023/05/25 05:41:54;;;;;;;11.77;6.57;;;14.70;72.90;;;;;;5074457;28;20468;-66
2023/05/25 05:44:21;;;;;;;11.30;5.47;;;15.10;71.60;;;;;;5113714;27;20059;-66
2023/05/25 05:46:47;;;;;;;11.80;6.60;;;15.50;70.90;;;;;;5127800;27;20119;-66
2023/05/25 05:49:12;;;;;;;13.07;6.32;;;15.90;70.30;;;;;;5114748;27;20115;-66
2023/05/25 05:51:38;;;;;;;12.30;6.32;;;16.20;69.80;;;;;;5073626;28;20045;-66
2023/05/25 05:54:04;;;;;;;12.23;5.90;;;16.60;68.30;;;;;;5107789;28;20497;-66
2023/05/25 05:56:30;;;;;;;10.93;5.93;;;17.00;67.40;;;;;;5127722;27;20044;-67
2023/05/25 05:58:56;;;;;;;12.05;5.82;;;17.40;66.10;;;;;;5076924;28;20097;-67
2023/05/25 06:01:22;;;;;;;14.40;5.78;;;17.80;65.10;;;;;;5127553;27;20063;-66
2023/05/25 06:03:49;;;;;;;11.93;6.10;;;18.20;63.60;;;;;;5093215;28;20467;-67
2023/05/25 06:06:15;;;;;;;12.43;5.20;;;18.60;62.10;;;;;;5101034;28;20048;-67
2023/05/25 06:08:42;;;;;;;12.18;6.13;;;18.90;60.80;;;;;;5127478;27;20407;-67
2023/05/25 06:11:08;;;;;;;12.48;5.47;;;19.30;59.80;;;;;;5093278;28;20115;-67
2023/05/25 06:13:33;;;;;;;9.65;5.50;;;19.70;59.20;;;;;;5076457;28;20174;-67
2023/05/25 06:15:59;;;;;;;11.02;5.55;;;19.90;58.00;;;;;;5076342;28;20127;-64
2023/05/25 06:18:25;;;;;;;9.00;4.78;;;20.10;57.40;;;;;;5092813;28;20094;-65
2023/05/25 06:20:50;;;;;;;10.73;5.82;;;20.40;56.30;;;;;;5093832;28;20048;-65
2023/05/25 06:23:17;;;;;;;8.60;5.68;;;20.60;55.90;;;;;;5091806;28;20479;-66
2023/05/25 06:25:45;;;;;;;11.75;6.43;;;20.70;55.10;;;;;;5126586;27;20043;-65
2023/05/25 06:28:11;;;;;;;10.02;5.63;;;20.90;54.60;;;;;;5096222;28;20130;-65
2023/05/25 06:30:37;;;;;;;15.18;5.82;;;20.80;53.80;;;;;;5113098;28;20046;-65
2023/05/25 06:33:02;;;;;;;10.35;4.85;;;20.80;53.60;;;;;;5109117;28;20044;-65
2023/05/25 06:35:28;;;;;;;10.35;5.50;;;20.80;53.60;;;;;;5092388;28;20101;-65
2023/05/25 06:37:54;;;;;;;8.95;4.68;;;20.70;53.40;;;;;;5076081;28;20047;-65
2023/05/25 06:40:20;;;;;;;12.15;5.47;;;20.50;53.20;;;;;;5126691;27;20055;-65
2023/05/25 06:42:46;;;;;;;10.45;5.22;;;20.40;53.90;;;;;;5126507;27;20048;-66
2023/05/25 06:45:12;;;;;;;11.15;6.10;;;20.40;53.90;;;;;;5126803;27;20119;-66
2023/05/25 06:47:38;;;;;;;11.55;5.05;;;20.30;53.80;;;;;;5075725;28;20036;-65
2023/05/25 06:50:04;;;;;;;8.80;4.88;;;20.20;53.60;;;;;;5125298;27;20063;-65
2023/05/25 06:52:30;;;;;;;10.13;5.53;;;20.20;54.10;;;;;;5119714;27;20067;-65
2023/05/25 06:54:56;;;;;;;9.85;4.65;;;20.20;54.40;;;;;;5083175;28;20052;-65
2023/05/25 06:57:25;;;;;;;10.10;4.05;;;20.10;54.80;;;;;;5092588;28;20085;-65
2023/05/25 06:59:50;;;;;;;9.45;4.20;;;20.20;54.10;;;;;;5092272;28;20101;-65
2023/05/25 07:02:17;;;;;;;8.45;4.50;;;20.00;53.70;;;;;;5092104;28;20047;-65
2023/05/25 07:04:43;;;;;;;9.45;4.38;;;19.80;53.80;;;;;;5092042;28;20071;-65
2023/05/25 07:07:11;;;;;;;12.18;4.63;;;19.70;54.00;;;;;;5126172;27;20463;-65
2023/05/25 07:09:37;;;;;;;10.52;4.30;;;19.60;54.20;;;;;;5107545;28;20487;-65
2023/05/25 07:12:06;;;;;;;9.30;4.65;;;19.40;54.00;;;;;;5055188;28;20056;-66
2023/05/25 07:14:33;;;;;;;9.88;4.82;;;19.30;54.20;;;;;;5105717;28;20491;-66
2023/05/25 07:16:59;;;;;;;9.73;4.32;;;19.20;54.50;;;;;;5105717;28;20076;-65
2023/05/25 07:19:24;;;;;;;10.02;4.40;;;19.00;54.10;;;;;;5109410;27;20124;-65
2023/05/25 07:21:50;;;;;;;13.57;5.03;;;18.80;54.30;;;;;;5091466;28;20051;-65
2023/05/25 07:24:17;;;;;;;15.23;4.78;;;18.70;55.00;;;;;;5091873;28;20040;-65
2023/05/25 07:26:43;;;;;;;12.05;4.07;;;18.60;55.40;;;;;;5091595;28;20040;-66
2023/05/25 07:29:09;;;;;;;11.02;4.50;;;18.60;54.90;;;;;;5092074;28;20083;-65
2023/05/25 07:31:35;;;;;;;11.30;3.67;;;18.40;54.70;;;;;;5091955;28;20048;-65
2023/05/25 07:34:01;;;;;;;10.15;4.60;;;18.30;55.30;;;;;;5057777;28;20399;-65
2023/05/25 07:36:26;;;;;;;8.32;4.10;;;18.30;55.60;;;;;;5091510;28;20100;-65
2023/05/25 07:38:52;;;;;;;7.90;3.78;;;18.30;55.90;;;;;;5091720;28;20093;-65
2023/05/25 07:41:18;;;;;;;12.52;3.65;;;18.30;55.70;;;;;;5091609;28;20117;-65
2023/05/25 07:43:44;;;;;;;10.10;4.07;;;18.20;55.50;;;;;;5091207;28;20062;-65
2023/05/25 07:46:10;;;;;;;9.90;4.25;;;18.20;55.40;;;;;;5074857;28;20040;-65
2023/05/25 07:48:36;;;;;;;10.68;4.25;;;18.10;55.50;;;;;;5074997;28;20097;-65
2023/05/25 07:51:01;;;;;;;10.90;4.90;;;18.10;55.70;;;;;;5091555;28;20111;-66
2023/05/25 07:53:27;;;;;;;8.88;3.50;;;18.10;55.60;;;;;;5074771;28;20044;-65
2023/05/25 07:55:53;;;;;;;9.07;3.92;;;18.10;55.60;;;;;;5074711;28;20105;-65
2023/05/25 07:58:18;;;;;;;7.82;3.88;;;18.00;55.40;;;;;;5125568;28;20040;-66
2023/05/25 08:00:44;;;;;;;9.73;3.55;;;18.00;55.70;;;;;;5091715;28;20131;-65
2023/05/25 08:03:10;;;;;;;8.55;3.53;;;18.10;55.90;;;;;;5074348;28;20411;-65
2023/05/25 08:05:36;;;;;;;11.25;4.15;;;18.00;56.10;;;;;;5091033;28;20044;-66
2023/05/25 08:08:02;;;;;;;10.15;4.05;;;18.00;56.40;;;;;;5125744;28;20372;-66
2023/05/25 08:10:30;;;;;;;12.13;3.78;;;17.90;56.50;;;;;;5092832;28;20040;-66
2023/05/25 08:12:57;;;;;;;13.20;4.10;;;17.80;56.70;;;;;;5125470;28;20044;-67
2023/05/25 08:15:23;;;;;;;9.73;4.32;;;17.80;56.80;;;;;;5124174;28;20387;-66
2023/05/25 08:17:49;;;;;;;11.45;3.80;;;17.70;56.90;;;;;;5118239;28;20182;-66
2023/05/25 08:20:16;;;;;;;15.80;5.28;;;17.70;56.80;;;;;;5091337;28;20515;-66
2023/05/25 08:22:42;;;;;;;8.82;3.88;;;17.70;57.20;;;;;;5091585;28;20036;-66
2023/05/25 08:25:08;;;;;;;9.68;4.13;;;17.60;57.20;;;;;;5091389;28;20111;-66
2023/05/25 08:27:34;;;;;;;10.70;3.40;;;17.50;57.50;;;;;;5091264;28;20040;-67
2023/05/25 08:30:00;;;;;;;10.82;3.40;;;17.50;57.70;;;;;;5074548;28;20429;-66
2023/05/25 08:32:26;;;;;;;9.63;3.67;;;17.40;57.40;;;;;;5125332;28;20039;-66
2023/05/25 08:34:52;;;;;;;9.30;3.15;;;17.40;57.00;;;;;;5123721;28;20048;-67
2023/05/25 08:37:20;;;;;;;8.82;2.88;;;17.30;56.80;;;;;;5091239;28;20048;-66
2023/05/25 08:39:45;;;;;;;11.63;3.85;;;17.20;56.70;;;;;;5125375;28;20040;-66
2023/05/25 08:42:11;;;;;;;9.70;3.90;;;17.20;56.90;;;;;;5125158;28;20090;-66
2023/05/25 08:44:38;;;;;;;10.07;3.67;;;17.10;56.80;;;;;;5074124;28;20110;-66
2023/05/25 08:47:07;;;;;;;10.68;3.20;;;17.10;57.00;;;;;;5093965;28;20050;-66
2023/05/25 08:49:37;;;;;;;10.93;3.15;;;17.10;57.10;;;;;;5094885;28;20040;-66
2023/05/25 08:52:03;;;;;;;11.48;3.78;;;17.10;57.30;;;;;;5095840;28;20386;-66
2023/05/25 08:54:34;;;;;;;11.23;4.28;;;17.10;57.40;;;;;;5094901;28;20075;-66
2023/05/25 08:57:04;;;;;;;10.20;3.67;;;17.10;57.40;;;;;;5094768;28;20445;-66
2023/05/25 08:59:51;;;;;;;11.40;4.10;;;17.10;57.50;;;;;;5094701;28;20598;-66
2023/05/25 09:02:38;;;;;;;15.48;3.65;;;17.10;57.60;;;;;;5093860;28;20036;-67
2023/05/25 09:05:05;;;;;;;13.10;3.95;;;17.10;57.90;;;;;;5094507;28;20040;-64
2023/05/25 09:07:31;;;;;;;16.23;4.78;;;17.10;57.90;;;;;;5094218;28;20040;-65
2023/05/25 09:09:59;;;;;;;12.23;3.65;;;17.10;57.80;;;;;;5094345;28;20036;-66
2023/05/25 09:12:30;;;;;;;12.90;4.25;;;17.10;57.70;;;;;;5094600;28;20048;-66
2023/05/25 09:14:57;;;;;;;12.52;3.92;;;17.00;57.40;;;;;;5094142;28;20491;-66
2023/05/25 09:17:23;;;;;;;13.23;5.07;;;17.00;57.40;;;;;;5077419;28;20495;-65
2023/05/25 09:19:49;;;;;;;17.88;4.63;;;16.90;57.10;;;;;;5128760;27;20044;-66
2023/05/25 09:22:15;;;;;;;13.70;4.65;;;16.90;57.30;;;;;;5094061;28;20044;-66
2023/05/25 09:24:42;;;;;;;14.13;4.13;;;16.80;57.40;;;;;;5077209;28;20124;-66
2023/05/25 09:27:19;;;;;;;18.88;4.90;;;16.80;57.80;;;;;;5077549;28;20479;-66
2023/05/25 09:29:49;;;;;;;19.05;4.70;;;16.80;57.80;;;;;;5093945;28;20514;-66
2023/05/25 09:32:18;;;;;;;12.10;4.05;;;16.70;57.70;;;;;;5121801;27;20428;-66
2023/05/25 09:34:47;;;;;;;19.58;4.35;;;16.70;58.00;;;;;;5128255;27;20071;-66
2023/05/25 09:37:15;;;;;;;14.35;4.40;;;16.70;58.10;;;;;;5128336;27;20127;-66
2023/05/25 09:39:44;;;;;;;16.25;4.72;;;16.70;58.10;;;;;;5128258;27;20391;-66
2023/05/25 09:42:10;;;;;;;15.35;4.22;;;16.80;58.00;;;;;;5122058;27;20032;-66
2023/05/25 09:44:36;;;;;;;17.25;5.00;;;16.80;57.80;;;;;;5111518;27;20083;-66
2023/05/25 09:47:03;;;;;;;16.85;4.88;;;16.90;57.90;;;;;;5077411;28;20510;-65
2023/05/25 09:49:29;;;;;;;16.50;5.32;;;17.00;57.90;;;;;;5060532;28;20524;-65
2023/05/25 09:51:55;;;;;;;13.15;4.20;;;17.00;56.80;;;;;;5113485;27;20052;-65
2023/05/25 09:54:21;;;;;;;15.50;4.53;;;17.10;56.30;;;;;;5112174;27;20040;-65
2023/05/25 09:56:47;;;;;;;17.02;4.68;;;17.10;55.80;;;;;;5113470;27;20371;-65
2023/05/25 09:59:13;;;;;;;17.73;4.53;;;17.20;55.70;;;;;;5083629;28;20039;-65
2023/05/25 10:01:39;;;;;;;14.68;4.30;;;17.40;55.30;;;;;;5116354;27;20040;-65
2023/05/25 10:04:05;;;;;;;15.95;4.35;;;17.50;55.20;;;;;;5067151;28;20044;-65
2023/05/25 10:06:32;;;;;;;18.38;4.32;;;17.50;54.00;;;;;;5084135;28;20119;-65
2023/05/25 10:08:58;;;;;;;13.30;4.57;;;17.60;54.00;;;;;;5086462;28;20121;-65
2023/05/25 10:11:26;;;;;;;19.95;5.55;;;17.70;52.90;;;;;;5081126;28;20044;-65
2023/05/25 10:13:54;;;;;;;15.45;5.10;;;17.70;53.30;;;;;;5113418;27;20089;-65
2023/05/25 10:16:25;;;;;;;20.65;4.80;;;17.70;53.40;;;;;;5065221;28;20048;-65
2023/05/25 10:19:00;;;;;;;14.70;4.40;;;17.80;52.40;;;;;;5115942;27;20047;-65
2023/05/25 10:21:28;;;;;;;17.23;4.82;;;17.90;52.50;;;;;;5097786;28;20036;-65
2023/05/25 10:24:02;;;;;;;16.80;5.38;;;17.90;52.80;;;;;;5117378;27;20034;-65
2023/05/25 10:26:32;;;;;;;17.95;4.70;;;18.00;52.50;;;;;;5116579;27;20036;-65
2023/05/25 10:29:03;;;;;;;15.52;4.82;;;18.10;52.70;;;;;;5098400;28;20113;-65
2023/05/25 10:31:31;;;;;;;17.02;5.03;;;18.10;52.40;;;;;;5081197;28;20387;-65
2023/05/25 10:33:59;;;;;;;15.55;4.65;;;18.20;51.60;;;;;;5115462;27;20119;-65
2023/05/25 10:36:25;;;;;;;15.98;4.60;;;18.20;50.90;;;;;;5082532;28;20251;-65
2023/05/25 10:38:53;;;;;;;14.20;4.85;;;18.30;51.10;;;;;;5081020;28;20040;-65
2023/05/25 10:41:20;;;;;;;15.60;5.13;;;18.30;51.30;;;;;;5064669;28;20052;-65
2023/05/25 10:43:46;;;;;;;14.77;4.30;;;18.30;50.60;;;;;;5116528;27;20051;-65
2023/05/25 10:46:13;;;;;;;12.07;3.95;;;18.40;50.10;;;;;;5085056;28;20072;-65
2023/05/25 10:48:48;;;;;;;14.55;4.45;;;18.40;50.60;;;;;;5084464;28;20078;-65
2023/05/25 10:51:14;;;;;;;16.48;4.30;;;18.50;49.90;;;;;;5097959;28;20040;-65
2023/05/25 10:53:57;;;;;;;17.23;5.00;;;18.50;49.40;;;;;;5065977;28;20115;-65
2023/05/25 10:56:22;;;;;;;15.43;4.95;;;18.60;49.70;;;;;;5080585;28;20190;-65
2023/05/25 10:58:48;;;;;;;15.07;5.18;;;18.60;49.50;;;;;;5083160;28;20119;-65
2023/05/25 11:01:15;;;;;;;17.98;4.60;;;18.60;48.20;;;;;;5113573;27;20185;-65
2023/05/25 11:03:43;;;;;;;10.32;3.78;;;18.70;48.30;;;;;;5082306;28;20055;-66
2023/05/25 11:06:16;;;;;;;14.18;4.90;;;18.70;49.10;;;;;;5080782;28;20039;-66
2023/05/25 11:08:59;;;;;;;17.67;5.57;;;18.80;49.60;;;;;;5114593;27;20075;-66
2023/05/25 11:11:51;;;;;;;12.32;4.57;;;18.90;47.80;;;;;;5085291;28;20047;-66
2023/05/25 11:14:21;;;;;;;13.27;4.53;;;18.90;46.90;;;;;;5113611;27;20048;-66
2023/05/25 11:17:06;;;;;;;17.55;4.90;;;18.90;47.30;;;;;;5114662;27;20074;-66
2023/05/25 11:19:47;;;;;;;18.27;5.13;;;19.00;47.80;;;;;;5080963;28;20044;-64
2023/05/25 11:22:20;;;;;;;19.13;4.45;;;19.10;46.80;;;;;;5116304;27;20119;-64
2023/05/25 11:24:47;;;;;;;17.63;4.60;;;19.10;46.60;;;;;;5065584;28;20036;-66
2023/05/25 11:27:13;;;;;;;12.77;4.00;;;19.10;46.50;;;;;;5075204;28;20044;-66
2023/05/25 11:29:39;;;;;;;13.93;4.70;;;19.10;46.90;;;;;;5077007;28;20035;-66
2023/05/25 11:32:15;;;;;;;18.63;5.28;;;19.10;47.10;;;;;;5112888;27;20384;-66
2023/05/25 11:34:45;;;;;;;14.82;4.72;;;19.20;46.60;;;;;;5111927;27;20731;-66
2023/05/25 11:37:20;;;;;;;16.58;4.68;;;19.30;47.10;;;;;;5076216;28;20047;-66
2023/05/25 11:39:51;;;;;;;14.18;4.60;;;19.30;47.60;;;;;;5058774;28;20051;-66
2023/05/25 11:42:21;;;;;;;15.38;4.50;;;19.40;46.80;;;;;;5075034;28;20505;-66
2023/05/25 11:44:47;;;;;;;18.85;4.97;;;19.40;46.20;;;;;;5110143;27;20071;-66
2023/05/25 11:47:17;;;;;;;15.60;4.35;;;19.40;45.00;;;;;;5075461;28;20040;-66
2023/05/25 11:49:48;;;;;;;14.63;4.82;;;19.40;44.80;;;;;;5077171;28;20058;-66
2023/05/25 11:52:16;;;;;;;17.05;5.22;;;19.50;45.10;;;;;;5076530;28;20040;-64
2023/05/25 11:54:42;;;;;;;16.50;4.70;;;19.50;45.40;;;;;;5076147;28;20045;-64
2023/05/25 11:57:24;;;;;;;15.32;4.35;;;19.60;45.10;;;;;;5076844;28;20678;-65
2023/05/25 11:59:59;;;;;;;20.63;5.30;;;19.70;44.20;;;;;;5110053;28;20044;-64
2023/05/25 12:02:25;;;;;;;16.48;4.55;;;19.70;43.50;;;;;;5109086;28;20067;-64
2023/05/25 12:04:53;;;;;;;14.60;4.65;;;19.60;43.60;;;;;;5110775;28;20490;-64
2023/05/25 12:07:19;;;;;;;15.82;5.68;;;19.60;44.00;;;;;;5108899;28;20483;-64
2023/05/25 12:09:45;;;;;;;14.88;4.93;;;19.60;44.10;;;;;;5109338;28;20036;-64
2023/05/25 12:12:11;;;;;;;16.13;5.00;;;19.70;44.00;;;;;;5110806;28;20040;-65
2023/05/25 12:14:48;;;;;;;15.65;5.35;;;19.70;44.00;;;;;;5111239;28;20063;-65
2023/05/25 12:17:16;;;;;;;14.13;4.93;;;19.80;43.40;;;;;;5059366;28;20456;-65
2023/05/25 12:19:42;;;;;;;16.05;4.68;;;19.80;44.00;;;;;;5077257;28;20047;-65
2023/05/25 12:22:09;;;;;;;18.75;4.90;;;19.80;44.10;;;;;;5079804;28;20378;-65
2023/05/25 12:24:35;;;;;;;20.35;5.75;;;19.90;43.70;;;;;;5081300;28;20123;-65
2023/05/25 12:27:03;;;;;;;19.08;4.90;;;20.00;44.20;;;;;;5113527;27;20115;-65
2023/05/25 12:29:29;;;;;;;16.40;4.68;;;20.00;44.50;;;;;;5079248;28;20064;-65
2023/05/25 12:32:02;;;;;;;15.85;4.68;;;20.10;42.80;;;;;;5113412;27;20051;-65
2023/05/25 12:34:28;;;;;;;15.88;5.13;;;20.10;42.90;;;;;;5112385;27;20075;-65
2023/05/25 12:36:56;;;;;;;15.25;4.75;;;20.10;42.90;;;;;;5080121;28;20431;-64
2023/05/25 12:39:30;;;;;;;15.05;4.65;;;20.10;42.60;;;;;;5087040;28;20036;-65
2023/05/25 12:42:01;;;;;;;14.23;4.80;;;20.20;43.80;;;;;;5079002;28;20175;-65